sensor_id;sensor_type;location;lat;lon;timestamp;temperature;humidity
63219;DHT22;49320;52.512;13.448;2024-01-27T00:00:24;8.90;70.20
63219;DHT22;49320;52.512;13.448;2024-01-27T00:02:51;8.90;69.60
63219;DHT22;49320;52.512;13.448;2024-01-27T00:05:18;8.90;69.50
63219;DHT22;49320;52.512;13.448;2024-01-27T00:07:46;8.90;70.30
63219;DHT22;49320;52.512;13.448;2024-01-27T00:10:12;9.00;70.10
63219;DHT22;49320;52.512;13.448;2024-01-27T00:15:07;9.00;69.30
63219;DHT22;49320;52.512;13.448;2024-01-27T00:17:35;9.00;69.90
63219;DHT22;49320;52.512;13.448;2024-01-27T00:20:02;9.00;70.00
63219;DHT22;49320;52.512;13.448;2024-01-27T00:22:30;9.00;70.10
63219;DHT22;49320;52.512;13.448;2024-01-27T00:24:57;8.90;70.00
63219;DHT22;49320;52.512;13.448;2024-01-27T00:27:24;8.90;69.70
63219;DHT22;49320;52.512;13.448;2024-01-27T00:29:51;8.90;69.90
63219;DHT22;49320;52.512;13.448;2024-01-27T00:32:18;8.90;69.80
63219;DHT22;49320;52.512;13.448;2024-01-27T00:34:45;8.90;70.50
63219;DHT22;49320;52.512;13.448;2024-01-27T00:37:11;8.80;69.80
63219;DHT22;49320;52.512;13.448;2024-01-27T00:39:38;8.80;69.60
63219;DHT22;49320;52.512;13.448;2024-01-27T00:42:05;8.80;69.60
63219;DHT22;49320;52.512;13.448;2024-01-27T00:44:32;8.80;69.40
63219;DHT22;49320;52.512;13.448;2024-01-27T00:46:59;8.50;69.10
63219;DHT22;49320;52.512;13.448;2024-01-27T00:49:26;8.70;69.30
63219;DHT22;49320;52.512;13.448;2024-01-27T00:51:53;8.70;69.30
63219;DHT22;49320;52.512;13.448;2024-01-27T00:54:19;8.70;69.10
63219;DHT22;49320;52.512;13.448;2024-01-27T00:56:46;8.70;69.10
63219;DHT22;49320;52.512;13.448;2024-01-27T00:59:13;8.60;69.30
63219;DHT22;49320;52.512;13.448;2024-01-27T01:01:40;8.60;69.20
63219;DHT22;49320;52.512;13.448;2024-01-27T01:04:07;8.70;68.60
63219;DHT22;49320;52.512;13.448;2024-01-27T01:06:34;8.60;69.10
63219;DHT22;49320;52.512;13.448;2024-01-27T01:09:01;8.60;69.10
63219;DHT22;49320;52.512;13.448;2024-01-27T01:11:28;8.70;69.20
63219;DHT22;49320;52.512;13.448;2024-01-27T01:13:56;8.70;69.80
63219;DHT22;49320;52.512;13.448;2024-01-27T01:16:23;8.70;69.10
63219;DHT22;49320;52.512;13.448;2024-01-27T01:18:50;8.70;69.00
63219;DHT22;49320;52.512;13.448;2024-01-27T01:21:19;8.70;68.50
63219;DHT22;49320;52.512;13.448;2024-01-27T01:23:45;8.70;68.60
63219;DHT22;49320;52.512;13.448;2024-01-27T01:26:12;8.70;68.30
63219;DHT22;49320;52.512;13.448;2024-01-27T01:28:39;8.60;68.20
63219;DHT22;49320;52.512;13.448;2024-01-27T01:31:07;8.80;68.40
63219;DHT22;49320;52.512;13.448;2024-01-27T01:33:34;8.70;68.10
63219;DHT22;49320;52.512;13.448;2024-01-27T01:36:01;8.70;68.40
63219;DHT22;49320;52.512;13.448;2024-01-27T01:38:28;8.70;68.00
63219;DHT22;49320;52.512;13.448;2024-01-27T01:40:55;8.70;68.00
63219;DHT22;49320;52.512;13.448;2024-01-27T01:43:21;8.80;67.30
63219;DHT22;49320;52.512;13.448;2024-01-27T01:45:48;8.60;67.80
63219;DHT22;49320;52.512;13.448;2024-01-27T01:48:17;8.60;67.90
63219;DHT22;49320;52.512;13.448;2024-01-27T01:50:44;8.60;67.90
63219;DHT22;49320;52.512;13.448;2024-01-27T01:55:39;8.60;67.40
63219;DHT22;49320;52.512;13.448;2024-01-27T01:58:06;8.60;67.50
63219;DHT22;49320;52.512;13.448;2024-01-27T02:00:33;8.60;68.30
63219;DHT22;49320;52.512;13.448;2024-01-27T02:03:00;8.60;68.30
63219;DHT22;49320;52.512;13.448;2024-01-27T02:05:27;8.50;67.50
63219;DHT22;49320;52.512;13.448;2024-01-27T02:07:54;8.50;68.00
63219;DHT22;49320;52.512;13.448;2024-01-27T02:10:23;8.50;68.40
63219;DHT22;49320;52.512;13.448;2024-01-27T02:12:50;8.50;68.40
63219;DHT22;49320;52.512;13.448;2024-01-27T02:15:17;8.60;68.60
63219;DHT22;49320;52.512;13.448;2024-01-27T02:17:43;8.50;68.70
63219;DHT22;49320;52.512;13.448;2024-01-27T02:20:11;8.50;68.70
63219;DHT22;49320;52.512;13.448;2024-01-27T02:22:38;8.60;68.80
63219;DHT22;49320;52.512;13.448;2024-01-27T02:25:05;8.60;68.90
63219;DHT22;49320;52.512;13.448;2024-01-27T02:27:32;8.60;68.70
63219;DHT22;49320;52.512;13.448;2024-01-27T02:29:59;8.60;68.60
63219;DHT22;49320;52.512;13.448;2024-01-27T02:32:25;8.60;68.70
63219;DHT22;49320;52.512;13.448;2024-01-27T02:34:52;8.60;68.60
63219;DHT22;49320;52.512;13.448;2024-01-27T02:37:19;8.70;68.60
63219;DHT22;49320;52.512;13.448;2024-01-27T02:39:46;8.70;68.70
63219;DHT22;49320;52.512;13.448;2024-01-27T02:42:13;8.70;68.70
63219;DHT22;49320;52.512;13.448;2024-01-27T02:44:40;8.70;68.00
63219;DHT22;49320;52.512;13.448;2024-01-27T02:47:07;8.50;68.60
63219;DHT22;49320;52.512;13.448;2024-01-27T02:49:34;8.10;68.60
63219;DHT22;49320;52.512;13.448;2024-01-27T02:52:01;8.70;69.00
63219;DHT22;49320;52.512;13.448;2024-01-27T02:54:27;8.70;68.10
63219;DHT22;49320;52.512;13.448;2024-01-27T02:56:54;8.70;68.90
63219;DHT22;49320;52.512;13.448;2024-01-27T02:59:21;8.70;69.00
63219;DHT22;49320;52.512;13.448;2024-01-27T03:01:48;8.70;69.00
63219;DHT22;49320;52.512;13.448;2024-01-27T03:04:15;8.70;68.00
63219;DHT22;49320;52.512;13.448;2024-01-27T03:06:41;8.70;68.90
63219;DHT22;49320;52.512;13.448;2024-01-27T03:09:08;8.70;69.10
63219;DHT22;49320;52.512;13.448;2024-01-27T03:11:37;8.50;69.00
63219;DHT22;49320;52.512;13.448;2024-01-27T03:14:04;8.70;69.20
63219;DHT22;49320;52.512;13.448;2024-01-27T03:16:31;8.70;69.00
63219;DHT22;49320;52.512;13.448;2024-01-27T03:18:58;8.70;69.80
63219;DHT22;49320;52.512;13.448;2024-01-27T03:21:26;8.70;69.20
63219;DHT22;49320;52.512;13.448;2024-01-27T03:23:53;8.70;69.10
63219;DHT22;49320;52.512;13.448;2024-01-27T03:26:19;8.70;69.10
63219;DHT22;49320;52.512;13.448;2024-01-27T03:28:46;8.60;69.10
63219;DHT22;49320;52.512;13.448;2024-01-27T03:31:13;8.60;69.00
63219;DHT22;49320;52.512;13.448;2024-01-27T03:33:40;8.60;69.10
63219;DHT22;49320;52.512;13.448;2024-01-27T03:36:12;8.50;69.00
63219;DHT22;49320;52.512;13.448;2024-01-27T03:38:42;8.50;69.10
63219;DHT22;49320;52.512;13.448;2024-01-27T03:41:09;8.50;69.10
63219;DHT22;49320;52.512;13.448;2024-01-27T03:43:36;8.40;69.10
63219;DHT22;49320;52.512;13.448;2024-01-27T03:46:03;8.30;69.10
63219;DHT22;49320;52.512;13.448;2024-01-27T03:48:30;8.30;69.40
63219;DHT22;49320;52.512;13.448;2024-01-27T03:50:57;8.30;69.50
63219;DHT22;49320;52.512;13.448;2024-01-27T03:53:24;8.20;69.20
63219;DHT22;49320;52.512;13.448;2024-01-27T03:55:50;8.20;69.60
63219;DHT22;49320;52.512;13.448;2024-01-27T03:58:18;8.10;69.80
63219;DHT22;49320;52.512;13.448;2024-01-27T04:00:44;8.10;70.00
63219;DHT22;49320;52.512;13.448;2024-01-27T04:03:12;8.00;69.80
63219;DHT22;49320;52.512;13.448;2024-01-27T04:05:39;7.90;70.10
63219;DHT22;49320;52.512;13.448;2024-01-27T04:08:06;7.90;70.30
63219;DHT22;49320;52.512;13.448;2024-01-27T04:10:33;7.80;69.70
63219;DHT22;49320;52.512;13.448;2024-01-27T04:13:00;7.80;70.60
63219;DHT22;49320;52.512;13.448;2024-01-27T04:15:27;7.80;70.70
63219;DHT22;49320;52.512;13.448;2024-01-27T04:17:55;7.80;70.70
63219;DHT22;49320;52.512;13.448;2024-01-27T04:20:22;7.50;70.80
63219;DHT22;49320;52.512;13.448;2024-01-27T04:22:49;7.70;71.10
63219;DHT22;49320;52.512;13.448;2024-01-27T04:25:15;7.80;71.30
63219;DHT22;49320;52.512;13.448;2024-01-27T04:27:42;7.70;71.20
63219;DHT22;49320;52.512;13.448;2024-01-27T04:30:11;7.70;71.60
63219;DHT22;49320;52.512;13.448;2024-01-27T04:32:38;7.60;71.50
63219;DHT22;49320;52.512;13.448;2024-01-27T04:35:09;7.80;71.70
63219;DHT22;49320;52.512;13.448;2024-01-27T04:37:37;7.50;71.90
63219;DHT22;49320;52.512;13.448;2024-01-27T04:40:05;7.60;71.90
63219;DHT22;49320;52.512;13.448;2024-01-27T04:42:38;7.60;72.10
63219;DHT22;49320;52.512;13.448;2024-01-27T04:45:08;7.60;72.20
63219;DHT22;49320;52.512;13.448;2024-01-27T04:47:35;7.60;71.70
63219;DHT22;49320;52.512;13.448;2024-01-27T04:50:02;7.70;72.50
63219;DHT22;49320;52.512;13.448;2024-01-27T04:52:30;7.70;72.50
63219;DHT22;49320;52.512;13.448;2024-01-27T04:57:24;7.80;72.00
63219;DHT22;49320;52.512;13.448;2024-01-27T04:59:51;7.80;72.60
63219;DHT22;49320;52.512;13.448;2024-01-27T05:02:18;7.80;72.60
63219;DHT22;49320;52.512;13.448;2024-01-27T05:04:45;7.90;72.10
63219;DHT22;49320;52.512;13.448;2024-01-27T05:07:12;7.90;72.60
63219;DHT22;49320;52.512;13.448;2024-01-27T05:09:39;7.90;72.60
63219;DHT22;49320;52.512;13.448;2024-01-27T05:12:06;7.90;72.50
63219;DHT22;49320;52.512;13.448;2024-01-27T05:14:33;8.00;72.60
63219;DHT22;49320;52.512;13.448;2024-01-27T05:17:00;6.00;71.30
63219;DHT22;49320;52.512;13.448;2024-01-27T05:19:27;8.00;72.50
63219;DHT22;49320;52.512;13.448;2024-01-27T05:21:54;8.00;72.00
63219;DHT22;49320;52.512;13.448;2024-01-27T05:24:20;8.00;72.60
63219;DHT22;49320;52.512;13.448;2024-01-27T05:26:47;8.00;72.50
63219;DHT22;49320;52.512;13.448;2024-01-27T05:29:14;8.00;72.50
63219;DHT22;49320;52.512;13.448;2024-01-27T05:31:41;8.00;72.60
63219;DHT22;49320;52.512;13.448;2024-01-27T05:34:11;8.00;72.50
63219;DHT22;49320;52.512;13.448;2024-01-27T05:36:38;8.00;72.60
63219;DHT22;49320;52.512;13.448;2024-01-27T05:39:05;8.00;72.60
63219;DHT22;49320;52.512;13.448;2024-01-27T05:41:33;8.10;72.80
63219;DHT22;49320;52.512;13.448;2024-01-27T05:43:59;8.00;72.70
63219;DHT22;49320;52.512;13.448;2024-01-27T05:46:26;8.10;72.80
63219;DHT22;49320;52.512;13.448;2024-01-27T05:48:53;8.00;72.70
63219;DHT22;49320;52.512;13.448;2024-01-27T05:51:22;8.00;72.80
63219;DHT22;49320;52.512;13.448;2024-01-27T05:53:50;8.00;72.70
63219;DHT22;49320;52.512;13.448;2024-01-27T05:56:16;8.00;72.90
63219;DHT22;49320;52.512;13.448;2024-01-27T05:58:49;8.00;72.90
63219;DHT22;49320;52.512;13.448;2024-01-27T06:01:18;8.00;72.60
63219;DHT22;49320;52.512;13.448;2024-01-27T06:03:46;8.00;72.60
63219;DHT22;49320;52.512;13.448;2024-01-27T06:06:13;8.00;73.00
63219;DHT22;49320;52.512;13.448;2024-01-27T06:08:41;8.00;73.10
63219;DHT22;49320;52.512;13.448;2024-01-27T06:11:08;8.10;73.30
63219;DHT22;49320;52.512;13.448;2024-01-27T06:13:36;8.10;73.10
63219;DHT22;49320;52.512;13.448;2024-01-27T06:16:08;7.20;72.70
63219;DHT22;49320;52.512;13.448;2024-01-27T06:18:38;8.10;73.10
63219;DHT22;49320;52.512;13.448;2024-01-27T06:21:05;8.20;73.10
63219;DHT22;49320;52.512;13.448;2024-01-27T06:23:33;8.20;73.10
63219;DHT22;49320;52.512;13.448;2024-01-27T06:26:05;8.20;73.10
63219;DHT22;49320;52.512;13.448;2024-01-27T06:28:36;8.20;73.10
63219;DHT22;49320;52.512;13.448;2024-01-27T06:31:03;8.20;73.00
63219;DHT22;49320;52.512;13.448;2024-01-27T06:33:31;8.30;73.10
63219;DHT22;49320;52.512;13.448;2024-01-27T06:38:29;9.20;73.00
63219;DHT22;49320;52.512;13.448;2024-01-27T06:40:58;8.30;73.10
63219;DHT22;49320;52.512;13.448;2024-01-27T06:43:24;8.30;73.00
63219;DHT22;49320;52.512;13.448;2024-01-27T06:45:51;8.30;73.10
63219;DHT22;49320;52.512;13.448;2024-01-27T06:48:18;8.30;73.00
63219;DHT22;49320;52.512;13.448;2024-01-27T06:50:45;8.40;73.10
63219;DHT22;49320;52.512;13.448;2024-01-27T06:53:12;8.40;73.30
63219;DHT22;49320;52.512;13.448;2024-01-27T06:55:39;8.40;73.30
63219;DHT22;49320;52.512;13.448;2024-01-27T06:58:09;8.40;73.30
63219;DHT22;49320;52.512;13.448;2024-01-27T07:00:36;8.40;73.10
63219;DHT22;49320;52.512;13.448;2024-01-27T07:03:04;8.40;74.00
63219;DHT22;49320;52.512;13.448;2024-01-27T07:08:00;8.50;72.70
63219;DHT22;49320;52.512;13.448;2024-01-27T07:10:28;8.50;73.40
63219;DHT22;49320;52.512;13.448;2024-01-27T07:12:55;8.50;78.00
63219;DHT22;49320;52.512;13.448;2024-01-27T07:15:22;8.70;77.40
63219;DHT22;49320;52.512;13.448;2024-01-27T07:17:50;8.50;73.30
63219;DHT22;49320;52.512;13.448;2024-01-27T07:20:17;8.60;77.20
63219;DHT22;49320;52.512;13.448;2024-01-27T07:25:11;8.80;77.50
63219;DHT22;49320;52.512;13.448;2024-01-27T07:27:38;8.40;77.50
63219;DHT22;49320;52.512;13.448;2024-01-27T07:30:06;8.50;77.50
63219;DHT22;49320;52.512;13.448;2024-01-27T07:35:03;8.60;77.90
63219;DHT22;49320;52.512;13.448;2024-01-27T07:37:32;8.40;77.60
63219;DHT22;49320;52.512;13.448;2024-01-27T07:39:59;8.80;77.70
63219;DHT22;49320;52.512;13.448;2024-01-27T07:42:26;8.70;77.70
63219;DHT22;49320;52.512;13.448;2024-01-27T07:44:53;8.50;77.40
63219;DHT22;49320;52.512;13.448;2024-01-27T07:47:20;8.50;77.10
63219;DHT22;49320;52.512;13.448;2024-01-27T07:52:15;8.80;77.50
63219;DHT22;49320;52.512;13.448;2024-01-27T07:54:42;9.00;78.00
63219;DHT22;49320;52.512;13.448;2024-01-27T07:57:09;8.60;77.30
63219;DHT22;49320;52.512;13.448;2024-01-27T07:59:38;8.90;77.80
63219;DHT22;49320;52.512;13.448;2024-01-27T08:02:05;8.50;77.30
63219;DHT22;49320;52.512;13.448;2024-01-27T08:04:32;8.80;76.40
63219;DHT22;49320;52.512;13.448;2024-01-27T08:06:59;8.80;77.70
63219;DHT22;49320;52.512;13.448;2024-01-27T08:11:54;4.20;73.90
63219;DHT22;49320;52.512;13.448;2024-01-27T08:16:49;9.00;77.00
63219;DHT22;49320;52.512;13.448;2024-01-27T08:19:16;8.90;72.40
63219;DHT22;49320;52.512;13.448;2024-01-27T08:21:47;8.90;73.00
63219;DHT22;49320;52.512;13.448;2024-01-27T08:24:14;9.10;76.70
63219;DHT22;49320;52.512;13.448;2024-01-27T08:29:09;9.00;72.30
63219;DHT22;49320;52.512;13.448;2024-01-27T08:34:05;9.00;76.10
63219;DHT22;49320;52.512;13.448;2024-01-27T08:36:34;8.90;75.20
63219;DHT22;49320;52.512;13.448;2024-01-27T08:39:01;9.00;72.80
63219;DHT22;49320;52.512;13.448;2024-01-27T08:43:56;9.10;75.80
63219;DHT22;49320;52.512;13.448;2024-01-27T08:46:23;9.10;72.70
63219;DHT22;49320;52.512;13.448;2024-01-27T08:48:50;9.60;77.10
63219;DHT22;49320;52.512;13.448;2024-01-27T08:51:17;9.20;71.90
63219;DHT22;49320;52.512;13.448;2024-01-27T08:53:44;9.20;76.00
63219;DHT22;49320;52.512;13.448;2024-01-27T08:56:18;9.20;77.60
63219;DHT22;49320;52.512;13.448;2024-01-27T09:01:16;9.10;78.30
63219;DHT22;49320;52.512;13.448;2024-01-27T09:06:10;9.00;77.20
63219;DHT22;49320;52.512;13.448;2024-01-27T09:11:05;9.20;75.40
63219;DHT22;49320;52.512;13.448;2024-01-27T09:15:59;9.30;71.30
63219;DHT22;49320;52.512;13.448;2024-01-27T09:18:26;9.50;78.10
63219;DHT22;49320;52.512;13.448;2024-01-27T09:20:54;9.20;78.40
63219;DHT22;49320;52.512;13.448;2024-01-27T09:25:49;9.50;78.40
63219;DHT22;49320;52.512;13.448;2024-01-27T09:33:11;9.60;78.10
63219;DHT22;49320;52.512;13.448;2024-01-27T09:35:39;9.80;78.40
63219;DHT22;49320;52.512;13.448;2024-01-27T09:40:39;9.70;77.60
63219;DHT22;49320;52.512;13.448;2024-01-27T09:48:03;9.90;70.40
63219;DHT22;49320;52.512;13.448;2024-01-27T09:50:34;9.80;72.90
63219;DHT22;49320;52.512;13.448;2024-01-27T09:55:28;9.70;77.60
63219;DHT22;49320;52.512;13.448;2024-01-27T09:57:55;9.80;77.60
63219;DHT22;49320;52.512;13.448;2024-01-27T10:02:50;9.70;73.20
63219;DHT22;49320;52.512;13.448;2024-01-27T10:10:13;9.60;77.10
63219;DHT22;49320;52.512;13.448;2024-01-27T10:12:42;9.90;69.80
63219;DHT22;49320;52.512;13.448;2024-01-27T10:15:20;10.00;77.10
63219;DHT22;49320;52.512;13.448;2024-01-27T10:25:13;10.10;76.60
63219;DHT22;49320;52.512;13.448;2024-01-27T10:30:16;10.20;69.10
63219;DHT22;49320;52.512;13.448;2024-01-27T10:32:54;10.20;69.00
63219;DHT22;49320;52.512;13.448;2024-01-27T10:35:23;10.20;71.90
63219;DHT22;49320;52.512;13.448;2024-01-27T10:37:54;10.00;75.50
63219;DHT22;49320;52.512;13.448;2024-01-27T10:43:06;10.30;73.20
63219;DHT22;49320;52.512;13.448;2024-01-27T10:45:35;10.20;73.10
63219;DHT22;49320;52.512;13.448;2024-01-27T10:48:07;10.20;67.90
63219;DHT22;49320;52.512;13.448;2024-01-27T10:50:39;10.30;74.80
63219;DHT22;49320;52.512;13.448;2024-01-27T10:53:31;10.30;68.30
63219;DHT22;49320;52.512;13.448;2024-01-27T10:56:03;10.20;75.60
63219;DHT22;49320;52.512;13.448;2024-01-27T10:58:35;8.30;67.60
63219;DHT22;49320;52.512;13.448;2024-01-27T11:01:11;10.10;75.70
63219;DHT22;49320;52.512;13.448;2024-01-27T11:03:39;10.20;75.00
63219;DHT22;49320;52.512;13.448;2024-01-27T11:06:07;10.30;68.30
63219;DHT22;49320;52.512;13.448;2024-01-27T11:08:36;10.40;75.70
63219;DHT22;49320;52.512;13.448;2024-01-27T11:11:10;10.30;75.30
63219;DHT22;49320;52.512;13.448;2024-01-27T11:18:42;10.40;68.30
63219;DHT22;49320;52.512;13.448;2024-01-27T11:21:16;10.40;68.30
63219;DHT22;49320;52.512;13.448;2024-01-27T11:26:21;10.60;75.60
63219;DHT22;49320;52.512;13.448;2024-01-27T11:28:50;10.40;68.90
63219;DHT22;49320;52.512;13.448;2024-01-27T11:31:18;10.40;67.60
63219;DHT22;49320;52.512;13.448;2024-01-27T11:33:49;10.50;68.00
63219;DHT22;49320;52.512;13.448;2024-01-27T11:36:23;10.50;67.80
63219;DHT22;49320;52.512;13.448;2024-01-27T11:38:52;10.50;75.40
63219;DHT22;49320;52.512;13.448;2024-01-27T11:41:38;10.50;67.90
63219;DHT22;49320;52.512;13.448;2024-01-27T11:46:40;10.50;69.30
63219;DHT22;49320;52.512;13.448;2024-01-27T11:49:12;10.50;68.00
63219;DHT22;49320;52.512;13.448;2024-01-27T11:51:41;10.60;68.60
63219;DHT22;49320;52.512;13.448;2024-01-27T11:56:35;10.50;75.70
63219;DHT22;49320;52.512;13.448;2024-01-27T11:59:02;10.70;73.70
63219;DHT22;49320;52.512;13.448;2024-01-27T12:01:29;10.60;75.70
63219;DHT22;49320;52.512;13.448;2024-01-27T12:03:57;10.60;75.60
63219;DHT22;49320;52.512;13.448;2024-01-27T12:08:54;10.60;70.00
63219;DHT22;49320;52.512;13.448;2024-01-27T12:11:24;10.60;68.50
63219;DHT22;49320;52.512;13.448;2024-01-27T12:13:52;10.60;68.50
63219;DHT22;49320;52.512;13.448;2024-01-27T12:16:22;10.60;73.90
63219;DHT22;49320;52.512;13.448;2024-01-27T12:18:52;10.60;70.70
63219;DHT22;49320;52.512;13.448;2024-01-27T12:23:55;10.70;75.20
63219;DHT22;49320;52.512;13.448;2024-01-27T12:26:28;10.70;75.10
63219;DHT22;49320;52.512;13.448;2024-01-27T12:31:25;10.70;74.40
63219;DHT22;49320;52.512;13.448;2024-01-27T12:33:54;10.50;67.70
63219;DHT22;49320;52.512;13.448;2024-01-27T12:39:02;10.60;75.00
63219;DHT22;49320;52.512;13.448;2024-01-27T12:48:55;10.60;74.60
63219;DHT22;49320;52.512;13.448;2024-01-27T12:58:46;10.50;66.60
63219;DHT22;49320;52.512;13.448;2024-01-27T13:01:13;10.50;67.50
63219;DHT22;49320;52.512;13.448;2024-01-27T13:03:39;10.50;66.40
63219;DHT22;49320;52.512;13.448;2024-01-27T13:06:11;10.50;66.60
63219;DHT22;49320;52.512;13.448;2024-01-27T13:08:39;10.40;67.00
63219;DHT22;49320;52.512;13.448;2024-01-27T13:11:08;10.40;66.60
63219;DHT22;49320;52.512;13.448;2024-01-27T13:13:35;10.40;67.70
63219;DHT22;49320;52.512;13.448;2024-01-27T13:16:02;10.40;67.60
63219;DHT22;49320;52.512;13.448;2024-01-27T13:18:28;10.40;66.50
63219;DHT22;49320;52.512;13.448;2024-01-27T13:20:56;10.30;67.50
63219;DHT22;49320;52.512;13.448;2024-01-27T13:23:22;10.30;67.30
63219;DHT22;49320;52.512;13.448;2024-01-27T13:25:49;10.30;66.80
63219;DHT22;49320;52.512;13.448;2024-01-27T13:28:36;10.30;67.70
63219;DHT22;49320;52.512;13.448;2024-01-27T13:31:03;10.30;67.70
63219;DHT22;49320;52.512;13.448;2024-01-27T13:33:31;10.20;67.80
63219;DHT22;49320;52.512;13.448;2024-01-27T13:35:59;10.20;67.80
63219;DHT22;49320;52.512;13.448;2024-01-27T13:38:26;10.20;67.60
63219;DHT22;49320;52.512;13.448;2024-01-27T13:40:53;10.10;68.40
63219;DHT22;49320;52.512;13.448;2024-01-27T13:43:20;10.10;67.40
63219;DHT22;49320;52.512;13.448;2024-01-27T13:45:47;10.10;68.10
63219;DHT22;49320;52.512;13.448;2024-01-27T13:48:14;10.10;68.20
63219;DHT22;49320;52.512;13.448;2024-01-27T13:50:42;10.00;67.60
63219;DHT22;49320;52.512;13.448;2024-01-27T13:53:09;10.00;68.40
63219;DHT22;49320;52.512;13.448;2024-01-27T13:55:36;10.00;68.50
63219;DHT22;49320;52.512;13.448;2024-01-27T13:58:03;10.00;68.10
63219;DHT22;49320;52.512;13.448;2024-01-27T14:03:01;10.00;68.20
63219;DHT22;49320;52.512;13.448;2024-01-27T14:07:56;10.00;68.40
63219;DHT22;49320;52.512;13.448;2024-01-27T14:12:51;10.10;68.60
63219;DHT22;49320;52.512;13.448;2024-01-27T14:15:18;10.10;69.30
63219;DHT22;49320;52.512;13.448;2024-01-27T14:17:45;10.10;69.10
63219;DHT22;49320;52.512;13.448;2024-01-27T14:20:12;10.10;68.50
63219;DHT22;49320;52.512;13.448;2024-01-27T14:22:40;10.10;68.60
63219;DHT22;49320;52.512;13.448;2024-01-27T14:25:07;10.00;70.50
63219;DHT22;49320;52.512;13.448;2024-01-27T14:27:34;10.10;68.70
63219;DHT22;49320;52.512;13.448;2024-01-27T14:30:01;10.30;73.40
63219;DHT22;49320;52.512;13.448;2024-01-27T14:32:28;10.00;74.00
63219;DHT22;49320;52.512;13.448;2024-01-27T14:34:55;10.10;68.90
63219;DHT22;49320;52.512;13.448;2024-01-27T14:37:23;10.10;69.60
63219;DHT22;49320;52.512;13.448;2024-01-27T14:39:50;9.90;69.30
63219;DHT22;49320;52.512;13.448;2024-01-27T14:42:17;10.20;72.20
63219;DHT22;49320;52.512;13.448;2024-01-27T14:44:44;10.10;68.90
63219;DHT22;49320;52.512;13.448;2024-01-27T14:47:16;10.10;69.60
63219;DHT22;49320;52.512;13.448;2024-01-27T14:49:42;10.10;69.80
63219;DHT22;49320;52.512;13.448;2024-01-27T14:52:12;10.10;69.60
63219;DHT22;49320;52.512;13.448;2024-01-27T14:54:39;10.20;69.00
63219;DHT22;49320;52.512;13.448;2024-01-27T14:57:06;10.10;69.60
63219;DHT22;49320;52.512;13.448;2024-01-27T15:02:06;10.10;68.90
63219;DHT22;49320;52.512;13.448;2024-01-27T15:04:36;10.10;69.00
63219;DHT22;49320;52.512;13.448;2024-01-27T15:07:03;10.10;69.60
63219;DHT22;49320;52.512;13.448;2024-01-27T15:09:30;10.10;68.80
63219;DHT22;49320;52.512;13.448;2024-01-27T15:11:57;10.10;69.50
63219;DHT22;49320;52.512;13.448;2024-01-27T15:14:24;10.10;69.50
63219;DHT22;49320;52.512;13.448;2024-01-27T15:16:51;10.10;69.50
63219;DHT22;49320;52.512;13.448;2024-01-27T15:24:14;10.10;69.00
63219;DHT22;49320;52.512;13.448;2024-01-27T15:26:41;10.20;73.90
63219;DHT22;49320;52.512;13.448;2024-01-27T15:29:08;10.10;69.60
63219;DHT22;49320;52.512;13.448;2024-01-27T15:36:32;10.20;69.00
63219;DHT22;49320;52.512;13.448;2024-01-27T15:38:58;10.30;69.80
63219;DHT22;49320;52.512;13.448;2024-01-27T15:43:53;10.40;68.90
63219;DHT22;49320;52.512;13.448;2024-01-27T15:46:20;10.40;68.60
63219;DHT22;49320;52.512;13.448;2024-01-27T15:51:14;10.40;68.70
63219;DHT22;49320;52.512;13.448;2024-01-27T15:53:41;10.70;74.90
63219;DHT22;49320;52.512;13.448;2024-01-27T15:58:36;10.50;73.50
63219;DHT22;49320;52.512;13.448;2024-01-27T16:01:03;10.40;69.20
63219;DHT22;49320;52.512;13.448;2024-01-27T16:03:30;10.40;68.30
63219;DHT22;49320;52.512;13.448;2024-01-27T16:05:57;10.50;69.30
63219;DHT22;49320;52.512;13.448;2024-01-27T16:08:24;10.40;69.00
63219;DHT22;49320;52.512;13.448;2024-01-27T16:13:20;10.50;68.40
63219;DHT22;49320;52.512;13.448;2024-01-27T16:15:47;10.40;68.20
63219;DHT22;49320;52.512;13.448;2024-01-27T16:20:41;10.40;68.20
63219;DHT22;49320;52.512;13.448;2024-01-27T16:23:08;10.50;69.00
63219;DHT22;49320;52.512;13.448;2024-01-27T16:25:35;10.40;68.80
63219;DHT22;49320;52.512;13.448;2024-01-27T16:28:02;10.30;68.70
63219;DHT22;49320;52.512;13.448;2024-01-27T16:30:29;10.30;68.70
63219;DHT22;49320;52.512;13.448;2024-01-27T16:32:56;10.30;68.80
63219;DHT22;49320;52.512;13.448;2024-01-27T16:35:22;10.10;68.60
63219;DHT22;49320;52.512;13.448;2024-01-27T16:37:49;10.20;68.80
63219;DHT22;49320;52.512;13.448;2024-01-27T16:40:16;10.10;68.70
63219;DHT22;49320;52.512;13.448;2024-01-27T16:42:43;10.20;68.90
63219;DHT22;49320;52.512;13.448;2024-01-27T16:45:10;9.90;68.70
63219;DHT22;49320;52.512;13.448;2024-01-27T16:47:36;9.90;68.90
63219;DHT22;49320;52.512;13.448;2024-01-27T16:50:04;10.00;69.00
63219;DHT22;49320;52.512;13.448;2024-01-27T16:52:31;9.90;68.90
63219;DHT22;49320;52.512;13.448;2024-01-27T16:54:58;9.90;69.00
63219;DHT22;49320;52.512;13.448;2024-01-27T16:57:25;9.90;69.10
63219;DHT22;49320;52.512;13.448;2024-01-27T16:59:51;9.70;69.00
63219;DHT22;49320;52.512;13.448;2024-01-27T17:02:20;9.70;68.60
63219;DHT22;49320;52.512;13.448;2024-01-27T17:04:47;9.80;69.20
63219;DHT22;49320;52.512;13.448;2024-01-27T17:07:16;9.70;69.20
63219;DHT22;49320;52.512;13.448;2024-01-27T17:09:43;9.70;69.20
63219;DHT22;49320;52.512;13.448;2024-01-27T17:12:10;9.70;69.20
63219;DHT22;49320;52.512;13.448;2024-01-27T17:14:39;9.60;69.20
63219;DHT22;49320;52.512;13.448;2024-01-27T17:17:06;9.70;69.30
63219;DHT22;49320;52.512;13.448;2024-01-27T17:19:33;9.60;69.30
63219;DHT22;49320;52.512;13.448;2024-01-27T17:22:01;9.50;69.30
63219;DHT22;49320;52.512;13.448;2024-01-27T17:24:28;9.50;69.40
63219;DHT22;49320;52.512;13.448;2024-01-27T17:26:55;9.40;69.30
63219;DHT22;49320;52.512;13.448;2024-01-27T17:29:22;9.50;69.40
63219;DHT22;49320;52.512;13.448;2024-01-27T17:31:48;9.50;69.60
63219;DHT22;49320;52.512;13.448;2024-01-27T17:34:15;9.40;69.50
63219;DHT22;49320;52.512;13.448;2024-01-27T17:36:44;9.30;69.50
63219;DHT22;49320;52.512;13.448;2024-01-27T17:39:11;9.40;69.60
63219;DHT22;49320;52.512;13.448;2024-01-27T17:41:38;9.40;69.60
63219;DHT22;49320;52.512;13.448;2024-01-27T17:44:07;9.40;69.70
63219;DHT22;49320;52.512;13.448;2024-01-27T17:46:34;9.30;69.60
63219;DHT22;49320;52.512;13.448;2024-01-27T17:49:01;9.50;73.00
63219;DHT22;49320;52.512;13.448;2024-01-27T17:51:29;9.30;69.70
63219;DHT22;49320;52.512;13.448;2024-01-27T17:54:02;9.30;69.60
63219;DHT22;49320;52.512;13.448;2024-01-27T17:56:30;9.30;69.70